Time;durP1;ratioP1;P1;durP2;ratioP2;P2;SDS_P1;SDS_P2;PMS_P1;PMS_P2;Temp;Humidity;BMP_temperature;BMP_pressure;BME280_temperature;BME280_humidity;BME280_pressure;Samples;Min_cycle;Max_cycle;Signal;HPM_P1;HPM_P2
2021/08/30 00:00:31;;;;;;;3.77;3.20;;;15.20;1.00;;;;;;6127013;23;20408;-83
2021/08/30 00:02:58;;;;;;;4.73;3.00;;;15.30;1.00;;;;;;6127414;23;20361;-83
2021/08/30 00:05:25;;;;;;;3.93;3.57;;;15.30;1.00;;;;;;6130080;23;20484;-83
2021/08/30 00:07:52;;;;;;;3.87;3.30;;;15.30;1.00;;;;;;6126747;23;20433;-82
2021/08/30 00:10:18;;;;;;;3.90;3.20;;;15.30;1.00;;;;;;6125802;23;20425;-83
2021/08/30 00:12:45;;;;;;;5.03;3.63;;;15.40;1.00;;;;;;6127768;23;20528;-82
2021/08/30 00:15:14;;;;;;;4.30;3.90;;;15.40;1.00;;;;;;6124082;23;21397;-83
2021/08/30 00:17:45;;;;;;;3.80;3.30;;;15.50;1.00;;;;;;6129882;23;20439;-84
2021/08/30 00:20:16;;;;;;;5.00;4.10;;;15.50;1.00;;;;;;6131780;23;20429;-84
2021/08/30 00:22:44;;;;;;;3.90;3.50;;;15.50;1.00;;;;;;6132244;23;20424;-84
2021/08/30 00:25:12;;;;;;;5.30;4.10;;;15.50;1.00;;;;;;6129355;23;20401;-85
2021/08/30 00:27:39;;;;;;;4.60;4.10;;;15.50;1.00;;;;;;6130390;23;20409;-84
2021/08/30 00:30:07;;;;;;;8.60;3.83;;;15.50;1.00;;;;;;6134783;23;21172;-83
2021/08/30 00:32:34;;;;;;;3.90;3.50;;;15.60;1.00;;;;;;6134432;23;20406;-83
2021/08/30 00:35:02;;;;;;;5.60;4.30;;;15.60;1.00;;;;;;6144019;23;20719;-84
2021/08/30 00:37:29;;;;;;;5.10;4.33;;;15.60;1.00;;;;;;6154523;23;20388;-85
2021/08/30 00:39:59;;;;;;;4.87;4.33;;;15.60;1.00;;;;;;6151699;23;20429;-84
2021/08/30 00:42:26;;;;;;;4.80;4.30;;;15.60;1.00;;;;;;6153243;23;20382;-85
2021/08/30 00:44:53;;;;;;;5.57;4.70;;;15.60;1.00;;;;;;6153200;23;20968;-83
2021/08/30 00:47:21;;;;;;;4.50;4.07;;;15.60;1.00;;;;;;6153550;23;20380;-83
2021/08/30 00:49:48;;;;;;;5.53;4.47;;;15.60;1.00;;;;;;6153100;23;20381;-84
2021/08/30 00:52:16;;;;;;;5.43;4.30;;;15.60;1.00;;;;;;6152476;23;20405;-84
2021/08/30 00:54:43;;;;;;;5.20;3.90;;;15.50;1.00;;;;;;6153059;23;20357;-84
2021/08/30 00:57:11;;;;;;;4.80;4.30;;;15.50;1.00;;;;;;6151757;23;20401;-84
2021/08/30 00:59:41;;;;;;;7.17;4.23;;;15.50;1.00;;;;;;6149109;23;20393;-83
2021/08/30 01:02:08;;;;;;;4.50;4.07;;;15.40;1.00;;;;;;6151116;23;20417;-83
2021/08/30 01:04:34;;;;;;;4.80;4.30;;;15.40;1.00;;;;;;6148723;23;20388;-83
2021/08/30 01:07:10;;;;;;;5.10;4.60;;;15.30;1.00;;;;;;6149994;23;20471;-83
2021/08/30 01:09:46;;;;;;;5.30;4.73;;;15.30;1.00;;;;;;6147282;23;20717;-82
2021/08/30 01:12:21;;;;;;;4.87;4.40;;;15.30;1.00;;;;;;6149314;23;20383;-83
2021/08/30 01:14:54;;;;;;;5.20;4.23;;;15.30;1.00;;;;;;6143268;23;20400;-83
2021/08/30 01:17:22;;;;;;;5.63;5.03;;;15.30;1.00;;;;;;6137457;23;20927;-83
2021/08/30 01:19:55;;;;;;;5.30;4.80;;;15.30;1.00;;;;;;6121979;23;20432;-83
2021/08/30 01:22:22;;;;;;;5.33;4.87;;;15.20;1.00;;;;;;6120431;23;20374;-83
2021/08/30 01:24:52;;;;;;;6.10;5.03;;;15.30;1.00;;;;;;6118243;23;21175;-82
2021/08/30 01:27:19;;;;;;;5.47;4.97;;;15.30;1.00;;;;;;6119529;23;21086;-83
2021/08/30 01:29:56;;;;;;;6.43;5.50;;;15.30;1.00;;;;;;6138428;23;20378;-83
2021/08/30 01:32:34;;;;;;;5.37;4.60;;;15.30;1.00;;;;;;6149881;23;20401;-85
2021/08/30 01:35:08;;;;;;;5.33;4.83;;;15.40;1.00;;;;;;6150947;23;20398;-84
2021/08/30 01:37:40;;;;;;;6.20;5.60;;;15.50;1.00;;;;;;6142677;23;20397;-84
2021/08/30 01:40:09;;;;;;;7.30;5.00;;;15.50;1.00;;;;;;6143088;23;20396;-84
2021/08/30 01:42:38;;;;;;;5.30;4.77;;;15.50;1.00;;;;;;6123142;23;20398;-84
2021/08/30 01:45:08;;;;;;;5.90;5.40;;;15.50;1.00;;;;;;6121717;23;20406;-83
2021/08/30 01:47:38;;;;;;;5.27;4.77;;;15.50;1.00;;;;;;6121609;23;20424;-82
2021/08/30 01:50:07;;;;;;;5.13;4.63;;;15.50;1.00;;;;;;6121294;23;20405;-83
2021/08/30 01:52:39;;;;;;;5.80;5.20;;;15.40;1.00;;;;;;6124131;23;20765;-83
2021/08/30 01:55:14;;;;;;;6.30;5.37;;;15.30;1.00;;;;;;6117757;23;21216;-83
2021/08/30 02:00:42;;;;;;;5.53;5.03;;;15.30;1.00;;;;;;6119350;23;20851;-82
2021/08/30 02:00:43;;;;;;;6.03;5.43;;;15.30;1.00;;;;;;6120344;23;20461;-83
2021/08/30 02:03:12;;;;;;;5.63;5.03;;;15.40;1.00;;;;;;6118875;23;20645;-84
2021/08/30 02:05:38;;;;;;;5.27;4.77;;;15.40;1.00;;;;;;6115867;23;20418;-79
2021/08/30 02:08:06;;;;;;;5.70;4.90;;;15.30;1.00;;;;;;6116220;23;20994;-80
2021/08/30 02:10:32;;;;;;;5.50;5.00;;;15.40;1.00;;;;;;6117878;23;20759;-80
2021/08/30 02:13:01;;;;;;;6.50;5.70;;;15.40;1.00;;;;;;6118545;23;20417;-79
2021/08/30 02:15:28;;;;;;;6.00;5.40;;;15.40;1.00;;;;;;6113443;23;20436;-80
2021/08/30 02:18:01;;;;;;;7.83;5.47;;;15.40;1.00;;;;;;6114592;23;20411;-79
2021/08/30 02:20:31;;;;;;;5.53;5.03;;;15.40;1.00;;;;;;6119091;23;20512;-78
2021/08/30 02:23:01;;;;;;;6.43;5.83;;;15.40;1.00;;;;;;6119271;23;20738;-80
2021/08/30 02:25:28;;;;;;;6.77;6.17;;;15.30;1.00;;;;;;6120766;23;20412;-81
2021/08/30 02:27:57;;;;;;;6.53;5.93;;;15.30;1.00;;;;;;6136267;23;20472;-79
2021/08/30 02:30:28;;;;;;;6.10;5.40;;;15.30;1.00;;;;;;6142696;23;20449;-79
2021/08/30 02:32:59;;;;;;;12.97;11.83;;;15.20;1.00;;;;;;6145463;23;20361;-79
2021/08/30 02:35:31;;;;;;;6.20;5.60;;;15.20;1.00;;;;;;6130087;23;20402;-80
2021/08/30 02:37:58;;;;;;;6.50;5.43;;;15.20;1.00;;;;;;6120939;23;20971;-80
2021/08/30 02:40:27;;;;;;;5.83;5.33;;;15.20;1.00;;;;;;6118801;23;20402;-80
2021/08/30 02:42:55;;;;;;;5.33;4.83;;;15.20;1.00;;;;;;6113573;23;20755;-79
2021/08/30 02:45:24;;;;;;;5.60;4.87;;;15.20;1.00;;;;;;6113524;23;21635;-81
2021/08/30 02:47:51;;;;;;;5.67;5.07;;;15.10;1.00;;;;;;6112689;23;20425;-79
2021/08/30 02:50:19;;;;;;;5.50;5.00;;;15.10;1.00;;;;;;6113439;23;20424;-80
2021/08/30 02:52:47;;;;;;;5.80;5.20;;;15.10;1.00;;;;;;6115729;23;20435;-80
2021/08/30 02:55:14;;;;;;;5.70;5.17;;;15.10;1.00;;;;;;6115291;23;20485;-79
2021/08/30 02:57:42;;;;;;;6.27;5.67;;;15.00;1.00;;;;;;6116293;23;20378;-80
2021/08/30 03:00:11;;;;;;;6.50;5.80;;;14.90;1.00;;;;;;6116935;23;20397;-79
2021/08/30 03:02:38;;;;;;;6.40;5.27;;;14.90;1.00;;;;;;6118594;23;20406;-81
2021/08/30 03:05:06;;;;;;;6.47;5.87;;;14.80;1.00;;;;;;6115595;23;20412;-79
2021/08/30 03:07:32;;;;;;;6.60;5.43;;;14.90;1.00;;;;;;6117449;23;20978;-80
2021/08/30 03:10:01;;;;;;;7.00;6.40;;;14.90;1.00;;;;;;6116870;23;20947;-80
2021/08/30 03:12:33;;;;;;;6.03;5.43;;;14.90;1.00;;;;;;6115020;23;20407;-79
2021/08/30 03:15:03;;;;;;;9.47;7.80;;;14.90;1.00;;;;;;6112917;23;20519;-78
2021/08/30 03:17:32;;;;;;;6.87;5.90;;;14.90;1.00;;;;;;6117163;23;20973;-80
2021/08/30 03:19:59;;;;;;;7.17;6.47;;;14.90;1.00;;;;;;6116237;23;20392;-79
2021/08/30 03:22:27;;;;;;;7.37;6.67;;;14.90;1.00;;;;;;6114679;23;20427;-78
2021/08/30 03:24:55;;;;;;;8.27;6.93;;;14.90;1.00;;;;;;6117373;23;20412;-79
2021/08/30 03:27:23;;;;;;;7.20;6.33;;;14.90;1.00;;;;;;6114159;23;20372;-80
2021/08/30 03:29:52;;;;;;;7.60;6.90;;;15.00;1.00;;;;;;6115711;23;20435;-80
2021/08/30 03:32:21;;;;;;;7.77;6.97;;;15.00;1.00;;;;;;6122842;23;20443;-81
2021/08/30 03:34:58;;;;;;;7.80;6.70;;;15.00;1.00;;;;;;6131535;23;20702;-80
2021/08/30 03:37:26;;;;;;;6.20;5.40;;;15.00;1.00;;;;;;6116078;23;20413;-80
2021/08/30 03:39:54;;;;;;;8.00;7.30;;;15.00;1.00;;;;;;6116580;23;20392;-81
2021/08/30 03:42:26;;;;;;;7.17;6.47;;;15.10;1.00;;;;;;6115389;23;20413;-79
2021/08/30 03:44:54;;;;;;;6.47;5.87;;;15.10;1.00;;;;;;6127759;23;20405;-78
2021/08/30 03:47:22;;;;;;;7.97;7.27;;;15.10;1.00;;;;;;6118088;23;20393;-80
2021/08/30 03:49:50;;;;;;;8.30;7.50;;;15.10;1.00;;;;;;6116549;23;20378;-79
2021/08/30 03:52:18;;;;;;;8.83;8.03;;;15.20;1.00;;;;;;6114019;23;20477;-80
2021/08/30 03:54:45;;;;;;;7.33;6.60;;;15.10;1.00;;;;;;6115970;23;20498;-79
2021/08/30 03:57:14;;;;;;;9.23;8.33;;;15.20;1.00;;;;;;6114243;23;20632;-79
2021/08/30 03:59:47;;;;;;;9.00;8.20;;;15.20;1.00;;;;;;6115792;23;20406;-82
2021/08/30 04:02:14;;;;;;;9.40;8.30;;;15.20;1.00;;;;;;6118068;23;20399;-82
2021/08/30 04:04:43;;;;;;;9.10;8.20;;;15.20;1.00;;;;;;6115743;23;20508;-82
2021/08/30 04:07:10;;;;;;;8.90;8.00;;;15.20;1.00;;;;;;6118945;23;20976;-79
2021/08/30 04:09:38;;;;;;;11.00;9.93;;;15.20;1.00;;;;;;6117378;23;20411;-81
2021/08/30 04:12:05;;;;;;;8.70;7.80;;;15.20;1.00;;;;;;6116889;23;20362;-80
2021/08/30 04:14:33;;;;;;;10.93;9.93;;;15.20;1.00;;;;;;6114763;23;20601;-79
2021/08/30 04:17:01;;;;;;;10.80;9.70;;;15.20;1.00;;;;;;6118652;23;20425;-81
2021/08/30 04:19:27;;;;;;;12.00;10.70;;;15.30;1.00;;;;;;6116228;23;20424;-80
2021/08/30 04:21:54;;;;;;;11.63;10.43;;;15.30;1.00;;;;;;6116689;23;20434;-80
2021/08/30 04:24:24;;;;;;;10.70;9.60;;;15.30;1.00;;;;;;6117917;23;20410;-80
2021/08/30 04:26:54;;;;;;;10.57;9.47;;;15.30;1.00;;;;;;6116539;23;20412;-81
2021/08/30 04:29:20;;;;;;;11.93;10.73;;;15.40;1.00;;;;;;6122510;23;20428;-82
2021/08/30 04:31:47;;;;;;;12.47;11.17;;;15.40;1.00;;;;;;6124906;23;20799;-81
2021/08/30 04:34:21;;;;;;;13.67;12.17;;;15.40;1.00;;;;;;6121844;23;21365;-83
2021/08/30 04:36:48;;;;;;;13.37;12.07;;;15.40;1.00;;;;;;6121250;23;20385;-79
2021/08/30 04:39:14;;;;;;;13.53;11.60;;;15.40;1.00;;;;;;6126571;23;21187;-82
2021/08/30 04:41:43;;;;;;;15.57;13.97;;;15.40;1.00;;;;;;6120875;23;20580;-85
2021/08/30 04:44:10;;;;;;;16.70;14.30;;;15.50;1.00;;;;;;6127877;23;20428;-84
2021/08/30 04:46:38;;;;;;;17.53;14.53;;;15.50;1.00;;;;;;6147189;23;20373;-85
2021/08/30 04:49:25;;;;;;;14.27;12.43;;;15.50;1.00;;;;;;6147779;23;20504;-85
2021/08/30 04:52:03;;;;;;;17.97;16.07;;;15.50;1.00;;;;;;6153180;23;20362;-87
2021/08/30 04:54:30;;;;;;;19.43;15.13;;;15.60;1.00;;;;;;6127721;23;20526;-86
2021/08/30 04:56:57;;;;;;;17.20;14.20;;;15.50;1.00;;;;;;6129756;23;20410;-86
2021/08/30 04:59:24;;;;;;;16.27;13.27;;;15.60;1.00;;;;;;6129152;23;20489;-86
2021/08/30 05:01:53;;;;;;;17.53;13.20;;;15.60;1.00;;;;;;6128156;23;20496;-86
2021/08/30 05:04:20;;;;;;;16.87;14.50;;;15.60;1.00;;;;;;6130434;23;20445;-86
2021/08/30 05:06:47;;;;;;;19.00;13.10;;;15.50;1.00;;;;;;6131000;23;20460;-86
2021/08/30 05:09:15;;;;;;;17.40;13.40;;;15.60;1.00;;;;;;6125319;23;21252;-85
2021/08/30 05:11:41;;;;;;;16.73;14.20;;;15.50;1.00;;;;;;6127429;23;20464;-86
2021/08/30 05:14:09;;;;;;;16.03;14.30;;;15.50;1.00;;;;;;6129765;23;20484;-84
2021/08/30 05:16:35;;;;;;;16.40;13.00;;;15.60;1.00;;;;;;6126004;23;20422;-80
2021/08/30 05:19:02;;;;;;;16.20;13.90;;;15.60;1.00;;;;;;6129769;23;20407;-81
2021/08/30 05:21:29;;;;;;;15.40;12.30;;;15.60;1.00;;;;;;6129011;23;20874;-81
2021/08/30 05:23:56;;;;;;;15.60;12.47;;;15.70;1.00;;;;;;6145514;23;20416;-82
2021/08/30 05:26:25;;;;;;;15.83;11.33;;;15.70;1.00;;;;;;6141931;23;20391;-79
2021/08/30 05:28:52;;;;;;;53.83;48.37;;;15.70;1.00;;;;;;6144239;23;20417;-79
2021/08/30 05:31:19;;;;;;;15.47;12.43;;;15.70;1.00;;;;;;6154475;23;20446;-80
2021/08/30 05:33:46;;;;;;;13.50;12.17;;;15.70;1.00;;;;;;6152626;23;20381;-80
2021/08/30 05:36:13;;;;;;;13.73;12.17;;;15.80;1.00;;;;;;6176531;23;20357;-80
2021/08/30 05:38:40;;;;;;;17.57;14.93;;;15.80;1.00;;;;;;6153416;23;20450;-81
2021/08/30 05:41:07;;;;;;;12.53;11.23;;;15.80;1.00;;;;;;6153926;23;20660;-81
2021/08/30 05:43:35;;;;;;;13.93;11.93;;;15.80;1.00;;;;;;6154409;23;20437;-80
2021/08/30 05:46:03;;;;;;;14.40;11.50;;;15.90;1.00;;;;;;6153877;23;20466;-80
2021/08/30 05:48:30;;;;;;;12.43;10.73;;;15.90;1.00;;;;;;6153301;23;20468;-80
2021/08/30 05:50:56;;;;;;;14.20;11.33;;;15.90;1.00;;;;;;6154508;23;20375;-80
2021/08/30 05:53:23;;;;;;;13.63;10.97;;;15.90;1.00;;;;;;6153930;23;20395;-80
2021/08/30 05:55:50;;;;;;;14.23;11.70;;;15.90;1.00;;;;;;6154833;23;20362;-82
2021/08/30 05:58:17;;;;;;;17.80;14.30;;;16.00;1.00;;;;;;6153080;23;20480;-80
2021/08/30 06:00:45;;;;;;;14.83;12.03;;;16.00;1.00;;;;;;6153325;23;20382;-80
2021/08/30 06:03:12;;;;;;;15.90;12.73;;;16.10;1.00;;;;;;6153673;23;20393;-80
2021/08/30 06:05:38;;;;;;;14.40;11.30;;;16.10;1.00;;;;;;6152514;23;20378;-80
2021/08/30 06:08:05;;;;;;;12.93;11.20;;;16.10;1.00;;;;;;6154578;23;20414;-80
2021/08/30 06:10:32;;;;;;;16.80;13.70;;;16.20;1.00;;;;;;6156006;23;20375;-81
2021/08/30 06:12:58;;;;;;;16.73;12.63;;;16.20;1.00;;;;;;6154850;23;20427;-81
2021/08/30 06:15:25;;;;;;;14.20;12.70;;;16.30;1.00;;;;;;6177240;23;20367;-80
2021/08/30 06:17:54;;;;;;;22.47;20.00;;;16.30;1.00;;;;;;6152012;23;20394;-80
2021/08/30 06:20:22;;;;;;;14.70;11.53;;;16.40;1.00;;;;;;6153087;23;20380;-81
2021/08/30 06:22:49;;;;;;;14.43;12.40;;;16.40;1.00;;;;;;6154466;23;20370;-81
2021/08/30 06:25:15;;;;;;;13.70;11.70;;;16.50;1.00;;;;;;6152732;23;21228;-81
2021/08/30 06:27:42;;;;;;;16.03;13.67;;;16.50;1.00;;;;;;6153614;23;20386;-80
2021/08/30 06:30:10;;;;;;;16.23;12.83;;;16.50;1.00;;;;;;6153033;23;20394;-81
2021/08/30 06:32:37;;;;;;;15.83;14.23;;;16.60;1.00;;;;;;6147920;23;20414;-80
2021/08/30 06:35:06;;;;;;;17.20;13.87;;;16.60;1.00;;;;;;6145278;23;20387;-80
2021/08/30 06:37:32;;;;;;;19.50;15.87;;;16.70;1.00;;;;;;6142276;23;20450;-80
2021/08/30 06:39:59;;;;;;;17.20;15.40;;;16.70;1.00;;;;;;6137759;23;20382;-80
2021/08/30 06:42:26;;;;;;;19.30;16.77;;;16.80;1.00;;;;;;6140849;23;20441;-81
2021/08/30 06:44:52;;;;;;;20.03;16.60;;;16.80;1.00;;;;;;6137250;23;20399;-80
2021/08/30 06:47:19;;;;;;;17.13;15.40;;;16.80;1.00;;;;;;6137151;23;20422;-81
2021/08/30 06:49:46;;;;;;;20.53;16.53;;;16.90;1.00;;;;;;6139773;23;20425;-81
2021/08/30 06:52:14;;;;;;;23.40;20.90;;;17.00;1.00;;;;;;6140595;23;21238;-80
2021/08/30 06:54:41;;;;;;;22.07;18.97;;;17.10;1.00;;;;;;6141743;23;20376;-82
2021/08/30 06:57:08;;;;;;;20.20;18.07;;;17.10;1.00;;;;;;6146406;23;20375;-79
2021/08/30 06:59:37;;;;;;;21.03;18.10;;;17.10;1.00;;;;;;6144772;23;20938;-81
2021/08/30 07:02:04;;;;;;;19.70;17.50;;;17.20;1.00;;;;;;6140818;23;20520;-80
2021/08/30 07:04:30;;;;;;;19.43;17.37;;;17.20;1.00;;;;;;6139191;23;20395;-80
2021/08/30 07:06:57;;;;;;;21.20;17.77;;;17.30;1.00;;;;;;6144258;23;20372;-81
2021/08/30 07:09:25;;;;;;;21.93;19.73;;;17.20;1.00;;;;;;6145081;23;20414;-80
2021/08/30 07:11:52;;;;;;;19.87;17.77;;;17.20;1.00;;;;;;6141867;23;20423;-82
2021/08/30 07:14:19;;;;;;;32.90;30.00;;;17.30;1.00;;;;;;6140125;23;20367;-80
2021/08/30 07:16:46;;;;;;;16.43;14.83;;;17.30;1.00;;;;;;6137763;23;20371;-81
2021/08/30 07:19:13;;;;;;;20.17;17.80;;;17.30;1.00;;;;;;6135199;23;20438;-82
2021/08/30 07:21:40;;;;;;;19.17;17.17;;;17.40;1.00;;;;;;6132440;23;20409;-82
2021/08/30 07:24:07;;;;;;;20.00;17.00;;;17.60;1.00;;;;;;6136804;23;20687;-84
2021/08/30 07:26:35;;;;;;;17.90;16.00;;;17.70;1.00;;;;;;6126720;23;20413;-80
2021/08/30 07:29:01;;;;;;;17.87;15.20;;;17.70;1.00;;;;;;6126298;23;20372;-80
2021/08/30 07:31:28;;;;;;;15.40;13.83;;;17.70;1.00;;;;;;6132214;23;20515;-80
2021/08/30 07:33:55;;;;;;;17.20;13.80;;;17.80;1.00;;;;;;6138891;23;20491;-81
2021/08/30 07:36:23;;;;;;;15.97;14.37;;;17.80;1.00;;;;;;6144786;23;20392;-80
2021/08/30 07:38:50;;;;;;;14.33;12.80;;;18.00;1.00;;;;;;6152368;23;20384;-79
2021/08/30 07:41:18;;;;;;;15.93;14.33;;;18.10;1.00;;;;;;6151008;23;20380;-79
2021/08/30 07:43:46;;;;;;;20.70;14.70;;;18.20;1.00;;;;;;6150124;23;20415;-82
2021/08/30 07:46:19;;;;;;;14.93;12.43;;;18.20;1.00;;;;;;6135556;23;20402;-81
2021/08/30 07:48:46;;;;;;;15.77;13.90;;;18.20;1.00;;;;;;6127902;23;20411;-81
2021/08/30 07:51:12;;;;;;;18.13;13.70;;;18.20;1.00;;;;;;6126849;23;20430;-81
2021/08/30 07:53:40;;;;;;;16.87;12.60;;;18.10;1.00;;;;;;6125258;23;20396;-81
2021/08/30 07:56:08;;;;;;;17.27;12.77;;;18.10;1.00;;;;;;6126811;23;20419;-79
2021/08/30 07:58:36;;;;;;;16.90;14.13;;;18.10;1.00;;;;;;6122692;23;20384;-80
2021/08/30 08:01:04;;;;;;;16.07;13.60;;;18.00;1.00;;;;;;6123601;23;20427;-80
2021/08/30 08:03:32;;;;;;;16.60;12.37;;;18.00;1.00;;;;;;6125207;23;20430;-79
2021/08/30 08:05:59;;;;;;;16.73;12.60;;;18.00;1.00;;;;;;6124216;23;20543;-82
2021/08/30 08:08:26;;;;;;;17.43;13.10;;;18.00;1.00;;;;;;6124110;23;20459;-82
2021/08/30 08:10:53;;;;;;;17.77;11.93;;;18.00;1.00;;;;;;6124679;23;21352;-81
2021/08/30 08:13:20;;;;;;;15.90;12.70;;;18.10;1.00;;;;;;6124307;23;20706;-80
2021/08/30 08:15:49;;;;;;;14.33;12.37;;;18.20;1.00;;;;;;6122008;23;20409;-81
2021/08/30 08:18:17;;;;;;;12.20;11.00;;;18.30;1.00;;;;;;6122249;23;20478;-82
2021/08/30 08:20:44;;;;;;;12.67;11.37;;;18.40;1.00;;;;;;6122954;23;20403;-80
2021/08/30 08:23:11;;;;;;;11.83;10.63;;;18.40;1.00;;;;;;6122200;23;20395;-82
2021/08/30 08:25:38;;;;;;;14.00;12.60;;;18.40;1.00;;;;;;6123670;23;20762;-82
2021/08/30 08:28:06;;;;;;;12.30;11.00;;;18.40;1.00;;;;;;6124894;23;21294;-80
2021/08/30 08:30:34;;;;;;;15.07;12.33;;;18.40;1.00;;;;;;6122576;23;20411;-80
2021/08/30 08:33:02;;;;;;;12.77;11.50;;;18.30;1.00;;;;;;6126622;23;20399;-80
2021/08/30 08:35:30;;;;;;;13.37;11.80;;;18.20;1.00;;;;;;6130178;23;20411;-80
2021/08/30 08:37:57;;;;;;;13.53;11.07;;;18.10;1.00;;;;;;6122755;23;20426;-80
2021/08/30 08:40:24;;;;;;;13.53;11.10;;;18.10;1.00;;;;;;6122304;23;20414;-80
2021/08/30 08:42:51;;;;;;;12.90;11.00;;;18.10;1.00;;;;;;6122754;23;20678;-81
2021/08/30 08:45:19;;;;;;;15.37;13.87;;;18.00;1.00;;;;;;6121294;23;20427;-81
2021/08/30 08:47:46;;;;;;;12.50;11.20;;;18.00;1.00;;;;;;6121266;23;20661;-81
2021/08/30 08:50:16;;;;;;;12.97;11.63;;;18.00;1.00;;;;;;6122351;23;21625;-81
2021/08/30 08:52:46;;;;;;;13.10;11.80;;;18.00;1.00;;;;;;6122417;23;20400;-81
2021/08/30 08:55:15;;;;;;;16.50;15.00;;;18.10;1.00;;;;;;6123018;23;21166;-80
2021/08/30 08:57:44;;;;;;;13.10;11.40;;;18.10;1.00;;;;;;6123581;23;20371;-80
2021/08/30 09:00:13;;;;;;;13.00;11.70;;;18.10;1.00;;;;;;6127094;23;20399;-80
2021/08/30 09:02:40;;;;;;;11.57;9.97;;;18.10;1.00;;;;;;6123419;23;20364;-79
2021/08/30 09:05:19;;;;;;;14.73;11.13;;;18.10;1.00;;;;;;6124262;23;20633;-81
2021/08/30 09:07:48;;;;;;;12.67;11.33;;;18.10;1.00;;;;;;6122537;23;20410;-81
2021/08/30 09:10:16;;;;;;;14.70;11.57;;;18.10;1.00;;;;;;6124895;23;20439;-80
2021/08/30 09:12:47;;;;;;;13.80;10.60;;;18.10;1.00;;;;;;6127646;23;20403;-81
2021/08/30 09:15:15;;;;;;;11.70;10.60;;;18.20;1.00;;;;;;6135925;23;20415;-81
2021/08/30 09:17:49;;;;;;;10.93;9.93;;;18.30;1.00;;;;;;6128892;23;20416;-81
2021/08/30 09:20:17;;;;;;;10.37;9.30;;;18.40;1.00;;;;;;6131971;23;20408;-80
2021/08/30 09:22:43;;;;;;;11.07;8.97;;;18.40;1.00;;;;;;6129748;23;20396;-80
2021/08/30 09:25:14;;;;;;;11.53;10.00;;;18.40;1.00;;;;;;6125475;23;20446;-81
2021/08/30 09:27:44;;;;;;;10.93;9.80;;;18.40;1.00;;;;;;6126591;23;20407;-81
2021/08/30 09:30:13;;;;;;;12.33;11.13;;;18.40;1.00;;;;;;6129121;23;20424;-83
2021/08/30 09:32:42;;;;;;;12.70;9.80;;;18.40;1.00;;;;;;6130572;23;20451;-82
2021/08/30 09:35:10;;;;;;;13.50;10.93;;;18.30;1.00;;;;;;6139934;23;20476;-81
2021/08/30 09:37:39;;;;;;;12.30;9.50;;;18.30;1.00;;;;;;6137986;23;20428;-81
2021/08/30 09:40:11;;;;;;;12.00;10.83;;;18.30;1.00;;;;;;6136684;23;20410;-81
2021/08/30 09:42:45;;;;;;;10.77;9.80;;;18.30;1.00;;;;;;6137753;23;20432;-81
2021/08/30 09:45:15;;;;;;;14.50;12.93;;;18.40;1.00;;;;;;6143690;23;20406;-80
2021/08/30 09:47:50;;;;;;;10.70;9.70;;;18.30;1.00;;;;;;6144867;23;20798;-81
2021/08/30 09:50:18;;;;;;;11.27;10.17;;;18.20;1.00;;;;;;6148513;23;20791;-79
2021/08/30 09:52:45;;;;;;;10.30;9.40;;;18.20;1.00;;;;;;6148260;23;20491;-81
2021/08/30 09:55:12;;;;;;;9.93;9.03;;;18.20;1.00;;;;;;6146390;23;20387;-81
2021/08/30 09:57:48;;;;;;;8.83;7.93;;;18.20;1.00;;;;;;6148272;23;20384;-80
2021/08/30 10:00:16;;;;;;;10.67;9.70;;;18.20;1.00;;;;;;6152385;23;20382;-79
2021/08/30 10:02:46;;;;;;;11.27;9.80;;;18.30;1.00;;;;;;6152846;23;20475;-81
2021/08/30 10:05:14;;;;;;;11.23;9.90;;;18.40;1.00;;;;;;6149987;23;20400;-80
2021/08/30 10:07:42;;;;;;;11.83;10.60;;;18.40;1.00;;;;;;6147218;23;20438;-79
2021/08/30 10:10:10;;;;;;;10.07;9.07;;;18.40;1.00;;;;;;6145766;23;20431;-80
2021/08/30 10:12:37;;;;;;;9.60;8.70;;;18.40;1.00;;;;;;6148919;23;20404;-80
2021/08/30 10:15:07;;;;;;;9.77;8.93;;;18.50;1.00;;;;;;6149343;23;20372;-79
2021/08/30 10:17:35;;;;;;;10.50;9.50;;;18.60;1.00;;;;;;6151376;23;20387;-79
2021/08/30 10:20:04;;;;;;;10.10;9.07;;;18.70;1.00;;;;;;6149879;23;20423;-79
2021/08/30 10:22:31;;;;;;;12.73;9.67;;;18.80;1.00;;;;;;6148287;23;20383;-79
2021/08/30 10:24:58;;;;;;;10.00;9.00;;;18.80;1.00;;;;;;6150569;23;20364;-80
2021/08/30 10:27:30;;;;;;;10.20;9.20;;;18.80;1.00;;;;;;6149767;23;20391;-81
2021/08/30 10:30:11;;;;;;;9.77;8.97;;;18.80;1.00;;;;;;6151337;23;20589;-81
2021/08/30 10:32:40;;;;;;;10.30;8.73;;;18.90;1.00;;;;;;6148173;23;20404;-81
2021/08/30 10:35:18;;;;;;;10.10;9.20;;;18.90;1.00;;;;;;6146754;23;20550;-81
2021/08/30 10:37:49;;;;;;;10.37;9.47;;;18.90;1.00;;;;;;6147747;23;20395;-81
2021/08/30 10:40:17;;;;;;;10.10;9.20;;;18.90;1.00;;;;;;6145643;23;20708;-81
2021/08/30 10:42:44;;;;;;;10.17;8.87;;;18.90;1.00;;;;;;6130425;23;20975;-81
2021/08/30 10:45:12;;;;;;;9.07;8.27;;;18.90;1.00;;;;;;6127687;23;20475;-81
2021/08/30 10:47:39;;;;;;;9.43;8.60;;;18.90;1.00;;;;;;6125819;23;20440;-82
2021/08/30 10:50:18;;;;;;;10.17;9.07;;;19.00;1.00;;;;;;6126035;23;20423;-82
2021/08/30 10:52:45;;;;;;;9.17;8.37;;;19.00;1.00;;;;;;6123732;23;20388;-80
2021/08/30 10:55:17;;;;;;;8.77;7.97;;;19.00;1.00;;;;;;6123860;23;20467;-81
2021/08/30 10:57:51;;;;;;;9.33;8.50;;;18.90;1.00;;;;;;6122912;23;20997;-81
2021/08/30 11:00:30;;;;;;;9.87;8.97;;;18.90;1.00;;;;;;6126486;23;20410;-82
2021/08/30 11:02:57;;;;;;;10.30;9.33;;;18.90;1.00;;;;;;6121872;23;20406;-81
2021/08/30 11:05:26;;;;;;;10.00;9.10;;;18.90;1.00;;;;;;6119719;23;20415;-81
2021/08/30 11:07:56;;;;;;;9.70;8.80;;;19.00;1.00;;;;;;6123525;23;20423;-82
2021/08/30 11:10:25;;;;;;;9.00;8.20;;;19.20;1.00;;;;;;6123286;23;20392;-80
2021/08/30 11:12:52;;;;;;;8.77;7.97;;;19.30;1.00;;;;;;6130550;23;20395;-79
2021/08/30 11:15:20;;;;;;;8.40;7.60;;;19.40;1.00;;;;;;6132099;23;20815;-82
2021/08/30 11:17:48;;;;;;;8.03;7.30;;;19.40;1.00;;;;;;6124319;23;20407;-82
2021/08/30 11:20:18;;;;;;;8.13;7.43;;;19.40;1.00;;;;;;6125483;23;20376;-81
2021/08/30 11:22:52;;;;;;;9.20;8.37;;;19.60;1.00;;;;;;6129540;23;21763;-81
2021/08/30 11:25:19;;;;;;;7.90;7.10;;;19.60;1.00;;;;;;6123696;23;20467;-81
2021/08/30 11:27:46;;;;;;;8.47;7.63;;;19.70;1.00;;;;;;6123584;23;20427;-80
2021/08/30 11:30:14;;;;;;;6.40;5.90;;;19.70;1.00;;;;;;6122101;23;20452;-81
2021/08/30 11:32:43;;;;;;;6.40;5.80;;;19.80;1.00;;;;;;6122298;23;20487;-81
2021/08/30 11:35:14;;;;;;;6.50;5.80;;;20.00;1.00;;;;;;6122139;23;20388;-80
2021/08/30 11:37:41;;;;;;;6.40;5.80;;;20.30;1.00;;;;;;6121799;23;20421;-81
2021/08/30 11:40:12;;;;;;;5.90;5.30;;;21.10;1.00;;;;;;6120851;23;20430;-81
2021/08/30 11:42:39;;;;;;;6.80;6.20;;;21.70;1.00;;;;;;6122409;23;21442;-81
2021/08/30 11:45:08;;;;;;;6.37;5.80;;;22.20;1.00;;;;;;6121259;23;20751;-81
2021/08/30 11:47:35;;;;;;;7.50;6.03;;;22.80;1.00;;;;;;6122550;23;20407;-81
2021/08/30 11:50:06;;;;;;;6.10;5.50;;;23.30;1.00;;;;;;6120923;23;21022;-80
2021/08/30 11:52:35;;;;;;;5.37;4.97;;;23.50;1.00;;;;;;6122975;23;20399;-81
2021/08/30 11:55:05;;;;;;;5.67;5.00;;;23.60;1.00;;;;;;6121040;23;21409;-81
2021/08/30 11:57:43;;;;;;;6.93;6.23;;;23.50;1.00;;;;;;6123534;23;20946;-81
2021/08/30 12:00:14;;;;;;;8.70;6.23;;;23.10;1.00;;;;;;6122274;23;20492;-81
2021/08/30 12:02:41;;;;;;;8.20;6.90;;;22.70;1.00;;;;;;6123686;23;20380;-80
2021/08/30 12:05:11;;;;;;;7.47;6.67;;;22.00;1.00;;;;;;6124712;23;20395;-81
2021/08/30 12:07:38;;;;;;;7.80;7.00;;;21.40;1.00;;;;;;6122449;23;20430;-83
2021/08/30 12:10:08;;;;;;;6.93;6.30;;;20.90;1.00;;;;;;6123009;23;20520;-82
2021/08/30 12:12:51;;;;;;;7.90;6.63;;;20.50;1.00;;;;;;6123919;23;20385;-82
2021/08/30 12:15:20;;;;;;;8.03;7.27;;;20.10;1.00;;;;;;6122888;23;20409;-80
2021/08/30 12:17:50;;;;;;;8.10;7.30;;;19.90;1.00;;;;;;6125728;23;20439;-81
2021/08/30 12:20:20;;;;;;;7.33;6.63;;;19.80;1.00;;;;;;6123436;23;20385;-82
2021/08/30 12:22:50;;;;;;;8.93;6.80;;;19.80;1.00;;;;;;6125008;23;20396;-81
2021/08/30 12:25:19;;;;;;;10.50;7.30;;;19.90;1.00;;;;;;6125137;23;20430;-81
2021/08/30 12:27:48;;;;;;;6.87;6.30;;;20.10;1.00;;;;;;6123933;23;20491;-81
2021/08/30 12:30:17;;;;;;;7.83;6.70;;;20.40;1.00;;;;;;6122628;23;20543;-81
2021/08/30 12:33:04;;;;;;;8.23;7.40;;;20.50;1.00;;;;;;6123686;23;20388;-80
2021/08/30 12:35:34;;;;;;;6.23;5.63;;;20.20;1.00;;;;;;6124261;23;20358;-82
2021/08/30 12:38:03;;;;;;;7.40;5.70;;;19.90;1.00;;;;;;6123513;23;20424;-82
2021/08/30 12:40:33;;;;;;;4.73;4.23;;;19.70;1.00;;;;;;6125883;23;20416;-81
2021/08/30 12:43:00;;;;;;;4.47;4.07;;;19.60;1.00;;;;;;6125535;23;20383;-81
2021/08/30 12:45:28;;;;;;;5.50;4.90;;;19.50;1.00;;;;;;6130303;23;20400;-82
2021/08/30 12:47:54;;;;;;;6.60;5.90;;;19.60;1.00;;;;;;6148374;23;20388;-82
2021/08/30 12:50:22;;;;;;;5.70;5.20;;;19.70;1.00;;;;;;6153826;23;20563;-81
2021/08/30 12:52:50;;;;;;;8.60;7.80;;;19.90;1.00;;;;;;6154202;23;20430;-82
2021/08/30 12:55:18;;;;;;;6.00;5.27;;;20.60;1.00;;;;;;6150429;23;20363;-81